sensor_id;sensor_type;location;lat;lon;timestamp;pressure;altitude;pressure_sealevel;temperature;humidity
67052;BME280;53957;47.222;18.670;2023-03-03T06:12:27;100350.28;;;3.52;100.00
67052;BME280;53957;47.222;18.670;2023-03-03T06:15:50;100344.00;;;3.53;100.00
67052;BME280;53957;47.222;18.670;2023-03-03T06:18:53;100349.59;;;3.57;100.00
67052;BME280;53957;47.222;18.670;2023-03-03T06:21:57;100354.16;;;3.62;100.00
67052;BME280;53957;47.222;18.670;2023-03-03T06:25:02;100352.00;;;3.59;100.00
67052;BME280;53957;47.222;18.670;2023-03-03T06:28:10;100356.94;;;3.43;100.00
67052;BME280;53957;47.222;18.670;2023-03-03T06:31:13;100355.56;;;3.52;100.00
67052;BME280;53957;47.222;18.670;2023-03-03T06:34:16;100359.16;;;3.87;100.00
67052;BME280;53957;47.222;18.670;2023-03-03T06:37:19;100358.25;;;3.81;100.00
67052;BME280;53957;47.222;18.670;2023-03-03T06:40:23;100355.28;;;3.78;100.00
67052;BME280;53957;47.222;18.670;2023-03-03T06:44:02;100365.44;;;4.27;100.00
67052;BME280;53957;47.222;18.670;2023-03-03T06:47:06;100361.91;;;3.92;100.00
67052;BME280;53957;47.222;18.670;2023-03-03T06:50:17;100363.25;;;3.95;100.00
67052;BME280;53957;47.222;18.670;2023-03-03T06:53:22;100369.37;;;4.12;100.00
67052;BME280;53957;47.222;18.670;2023-03-03T06:56:29;100358.97;;;4.06;100.00
67052;BME280;53957;47.222;18.670;2023-03-03T06:59:34;100378.81;;;4.08;100.00
67052;BME280;53957;47.222;18.670;2023-03-03T07:02:37;100369.63;;;4.11;100.00
67052;BME280;53957;47.222;18.670;2023-03-03T07:05:41;100375.81;;;4.16;100.00
67052;BME280;53957;47.222;18.670;2023-03-03T07:08:44;100370.72;;;4.27;100.00
67052;BME280;53957;47.222;18.670;2023-03-03T07:12:20;100382.44;;;4.31;100.00
67052;BME280;53957;47.222;18.670;2023-03-03T07:15:29;100379.72;;;4.43;100.00
67052;BME280;53957;47.222;18.670;2023-03-03T07:18:50;100377.91;;;4.43;100.00
67052;BME280;53957;47.222;18.670;2023-03-03T07:21:54;100381.66;;;4.47;100.00
67052;BME280;53957;47.222;18.670;2023-03-03T07:25:19;100380.53;;;4.60;100.00
67052;BME280;53957;47.222;18.670;2023-03-03T07:28:28;100382.16;;;4.78;100.00
67052;BME280;53957;47.222;18.670;2023-03-03T07:31:55;100380.72;;;4.88;100.00
67052;BME280;53957;47.222;18.670;2023-03-03T07:35:30;100387.94;;;4.92;100.00
67052;BME280;53957;47.222;18.670;2023-03-03T07:39:00;100381.03;;;5.08;100.00
67052;BME280;53957;47.222;18.670;2023-03-03T07:42:38;100388.81;;;5.15;100.00
67052;BME280;53957;47.222;18.670;2023-03-03T07:46:02;100388.72;;;5.27;100.00
67052;BME280;53957;47.222;18.670;2023-03-03T07:49:35;100393.41;;;5.42;100.00
67052;BME280;53957;47.222;18.670;2023-03-03T07:52:59;100392.69;;;5.46;100.00
67052;BME280;53957;47.222;18.670;2023-03-03T07:56:35;100399.00;;;5.85;100.00
67052;BME280;53957;47.222;18.670;2023-03-03T08:03:40;100390.47;;;6.00;100.00
67052;BME280;53957;47.222;18.670;2023-03-03T08:07:23;100395.19;;;5.97;100.00
67052;BME280;53957;47.222;18.670;2023-03-03T08:10:48;100395.12;;;6.15;100.00
67052;BME280;53957;47.222;18.670;2023-03-03T14:53:48;100204.50;;;10.31;97.98
67052;BME280;53957;47.222;18.670;2023-03-03T14:57:18;100204.72;;;10.40;98.45
67052;BME280;53957;47.222;18.670;2023-03-03T15:03:27;100207.38;;;10.40;96.22
67052;BME280;53957;47.222;18.670;2023-03-03T15:06:56;100196.19;;;10.38;95.51
67052;BME280;53957;47.222;18.670;2023-03-03T15:10:01;100188.50;;;10.36;95.24
67052;BME280;53957;47.222;18.670;2023-03-03T15:16:23;100189.06;;;10.28;95.26
67052;BME280;53957;47.222;18.670;2023-03-03T15:27:23;100198.09;;;9.97;97.34
67052;BME280;53957;47.222;18.670;2023-03-03T15:30:48;100194.56;;;9.73;98.21
67052;BME280;53957;47.222;18.670;2023-03-03T15:44:58;100199.22;;;9.51;99.85
67052;BME280;53957;47.222;18.670;2023-03-03T15:48:40;100203.84;;;9.35;100.00
67052;BME280;53957;47.222;18.670;2023-03-03T16:03:51;100213.53;;;9.11;100.00
67052;BME280;53957;47.222;18.670;2023-03-03T16:07:22;100209.87;;;9.01;100.00
67052;BME280;53957;47.222;18.670;2023-03-03T16:11:16;100217.88;;;8.96;100.00
67052;BME280;53957;47.222;18.670;2023-03-03T16:19:19;100225.09;;;8.70;100.00
67052;BME280;53957;47.222;18.670;2023-03-03T16:32:44;100251.94;;;7.91;100.00
67052;BME280;53957;47.222;18.670;2023-03-03T16:39:30;100242.28;;;7.49;100.00
67052;BME280;53957;47.222;18.670;2023-03-03T16:42:35;100247.81;;;7.32;100.00
67052;BME280;53957;47.222;18.670;2023-03-03T16:45:41;100247.97;;;7.09;100.00
67052;BME280;53957;47.222;18.670;2023-03-03T16:52:27;100258.00;;;6.97;100.00
67052;BME280;53957;47.222;18.670;2023-03-03T16:59:44;100261.75;;;6.26;100.00
67052;BME280;53957;47.222;18.670;2023-03-03T17:03:33;100267.00;;;6.21;100.00
67052;BME280;53957;47.222;18.670;2023-03-03T17:06:44;100275.44;;;6.12;100.00
67052;BME280;53957;47.222;18.670;2023-03-03T17:19:44;100284.13;;;5.86;100.00
67052;BME280;53957;47.222;18.670;2023-03-03T17:26:59;100281.22;;;5.60;100.00
67052;BME280;53957;47.222;18.670;2023-03-03T17:30:19;100282.88;;;5.44;100.00
67052;BME280;53957;47.222;18.670;2023-03-03T17:33:55;100290.69;;;5.34;100.00
67052;BME280;53957;47.222;18.670;2023-03-03T17:44:24;100286.03;;;5.63;100.00
67052;BME280;53957;47.222;18.670;2023-03-03T18:46:51;100312.50;;;4.05;100.00
67052;BME280;53957;47.222;18.670;2023-03-03T18:50:31;100312.19;;;4.01;100.00
67052;BME280;53957;47.222;18.670;2023-03-03T18:53:58;100306.81;;;3.96;100.00
67052;BME280;53957;47.222;18.670;2023-03-03T18:57:15;100315.22;;;3.93;100.00
67052;BME280;53957;47.222;18.670;2023-03-03T19:00:27;100307.28;;;3.93;100.00
67052;BME280;53957;47.222;18.670;2023-03-03T19:07:12;100318.37;;;3.66;100.00
67052;BME280;53957;47.222;18.670;2023-03-03T19:16:56;100316.19;;;3.75;100.00
67052;BME280;53957;47.222;18.670;2023-03-03T19:20:15;100322.84;;;3.65;100.00
67052;BME280;53957;47.222;18.670;2023-03-03T19:27:11;100326.88;;;3.68;100.00
67052;BME280;53957;47.222;18.670;2023-03-03T19:30:27;100333.69;;;3.52;100.00
67052;BME280;53957;47.222;18.670;2023-03-03T19:33:52;100325.63;;;3.47;100.00
67052;BME280;53957;47.222;18.670;2023-03-03T19:45:09;100327.41;;;3.17;100.00
67052;BME280;53957;47.222;18.670;2023-03-03T19:59:21;100349.81;;;2.61;100.00
67052;BME280;53957;47.222;18.670;2023-03-03T20:05:49;100353.00;;;2.51;100.00
67052;BME280;53957;47.222;18.670;2023-03-03T20:09:25;100356.00;;;2.54;100.00
67052;BME280;53957;47.222;18.670;2023-03-03T20:16:31;100364.81;;;2.60;100.00
67052;BME280;53957;47.222;18.670;2023-03-03T20:21:07;100367.22;;;2.62;100.00
67052;BME280;53957;47.222;18.670;2023-03-03T20:40:02;100356.22;;;1.92;100.00
67052;BME280;53957;47.222;18.670;2023-03-03T20:52:33;100355.72;;;1.83;100.00
67052;BME280;53957;47.222;18.670;2023-03-03T21:00:12;100356.66;;;2.07;100.00
67052;BME280;53957;47.222;18.670;2023-03-03T21:11:47;100354.56;;;2.09;100.00
67052;BME280;53957;47.222;18.670;2023-03-03T21:15:01;100356.09;;;2.17;100.00
67052;BME280;53957;47.222;18.670;2023-03-03T21:18:38;100351.09;;;2.28;100.00
67052;BME280;53957;47.222;18.670;2023-03-03T21:22:46;100359.06;;;2.21;100.00
67052;BME280;53957;47.222;18.670;2023-03-03T21:26:58;100349.81;;;2.18;100.00
67052;BME280;53957;47.222;18.670;2023-03-03T21:31:16;100359.19;;;2.14;100.00
67052;BME280;53957;47.222;18.670;2023-03-03T21:34:40;100364.59;;;2.01;100.00
67052;BME280;53957;47.222;18.670;2023-03-03T21:37:54;100353.94;;;1.96;100.00
67052;BME280;53957;47.222;18.670;2023-03-03T21:41:25;100354.69;;;1.84;100.00
67052;BME280;53957;47.222;18.670;2023-03-03T21:44:43;100358.63;;;1.75;100.00
67052;BME280;53957;47.222;18.670;2023-03-03T21:47:47;100362.00;;;1.64;100.00
67052;BME280;53957;47.222;18.670;2023-03-03T21:51:09;100359.75;;;1.49;100.00
67052;BME280;53957;47.222;18.670;2023-03-03T21:54:13;100368.72;;;1.41;100.00
67052;BME280;53957;47.222;18.670;2023-03-03T21:57:38;100356.47;;;1.35;100.00
67052;BME280;53957;47.222;18.670;2023-03-03T22:00:41;100370.62;;;1.08;100.00
67052;BME280;53957;47.222;18.670;2023-03-03T22:03:47;100359.59;;;1.00;100.00
67052;BME280;53957;47.222;18.670;2023-03-03T22:06:55;100360.81;;;0.97;100.00
67052;BME280;53957;47.222;18.670;2023-03-03T22:09:58;100374.22;;;1.14;100.00
67052;BME280;53957;47.222;18.670;2023-03-03T22:13:05;100364.47;;;1.21;100.00
67052;BME280;53957;47.222;18.670;2023-03-03T22:16:33;100364.47;;;1.21;100.00
67052;BME280;53957;47.222;18.670;2023-03-03T22:19:55;100366.28;;;1.21;100.00
67052;BME280;53957;47.222;18.670;2023-03-03T22:23:35;100373.63;;;1.12;100.00
67052;BME280;53957;47.222;18.670;2023-03-03T22:26:46;100364.72;;;1.13;100.00
67052;BME280;53957;47.222;18.670;2023-03-03T22:29:49;100362.31;;;1.11;100.00
67052;BME280;53957;47.222;18.670;2023-03-03T22:32:52;100372.25;;;1.09;100.00
67052;BME280;53957;47.222;18.670;2023-03-03T22:36:18;100372.00;;;1.11;100.00
67052;BME280;53957;47.222;18.670;2023-03-03T22:39:21;100364.72;;;1.13;100.00
67052;BME280;53957;47.222;18.670;2023-03-03T22:42:27;100368.75;;;1.16;100.00
67052;BME280;53957;47.222;18.670;2023-03-03T22:45:33;100373.34;;;1.20;100.00
67052;BME280;53957;47.222;18.670;2023-03-03T22:48:39;100373.78;;;1.17;100.00
67052;BME280;53957;47.222;18.670;2023-03-03T22:52:03;100369.19;;;1.12;100.00
67052;BME280;53957;47.222;18.670;2023-03-03T22:55:16;100368.38;;;1.12;100.00
67052;BME280;53957;47.222;18.670;2023-03-03T22:58:20;100368.97;;;1.14;100.00
67052;BME280;53957;47.222;18.670;2023-03-03T23:01:32;100372.69;;;1.06;100.00
67052;BME280;53957;47.222;18.670;2023-03-03T23:04:34;100371.34;;;0.97;100.00
67052;BME280;53957;47.222;18.670;2023-03-03T23:07:38;100374.81;;;0.91;100.00
67052;BME280;53957;47.222;18.670;2023-03-03T23:10:51;100370.03;;;0.81;100.00
67052;BME280;53957;47.222;18.670;2023-03-03T23:13:54;100372.41;;;0.89;100.00
67052;BME280;53957;47.222;18.670;2023-03-03T23:17:17;100379.16;;;0.78;100.00
67052;BME280;53957;47.222;18.670;2023-03-03T23:20:24;100373.59;;;0.61;100.00
67052;BME280;53957;47.222;18.670;2023-03-03T23:23:28;100378.69;;;0.56;100.00
67052;BME280;53957;47.222;18.670;2023-03-03T23:26:34;100372.19;;;0.66;100.00
67052;BME280;53957;47.222;18.670;2023-03-03T23:29:57;100368.06;;;0.76;100.00
67052;BME280;53957;47.222;18.670;2023-03-03T23:33:01;100366.50;;;0.69;100.00
67052;BME280;53957;47.222;18.670;2023-03-03T23:36:24;100357.91;;;0.55;100.00
67052;BME280;53957;47.222;18.670;2023-03-03T23:39:45;100366.66;;;0.42;100.00
67052;BME280;53957;47.222;18.670;2023-03-03T23:42:48;100365.31;;;0.32;100.00
67052;BME280;53957;47.222;18.670;2023-03-03T23:45:52;100370.34;;;0.34;100.00
67052;BME280;53957;47.222;18.670;2023-03-03T23:48:55;100362.47;;;0.41;100.00
67052;BME280;53957;47.222;18.670;2023-03-03T23:52:18;100360.56;;;0.48;100.00
67052;BME280;53957;47.222;18.670;2023-03-03T23:55:21;100367.19;;;0.57;100.00
67052;BME280;53957;47.222;18.670;2023-03-03T23:58:26;100363.50;;;0.65;100.00
